sensor_id;sensor_type;location;lat;lon;timestamp;temperature;humidity
65231;DHT22;51813;40.666;16.602;2023-07-20T00:00:52;29.10;54.40
65231;DHT22;51813;40.666;16.602;2023-07-20T00:03:19;29.10;54.40
65231;DHT22;51813;40.666;16.602;2023-07-20T00:05:48;29.10;54.40
65231;DHT22;51813;40.666;16.602;2023-07-20T00:08:15;29.10;54.50
65231;DHT22;51813;40.666;16.602;2023-07-20T00:10:41;29.00;54.30
65231;DHT22;51813;40.666;16.602;2023-07-20T00:13:07;29.00;54.20
65231;DHT22;51813;40.666;16.602;2023-07-20T00:15:33;29.10;54.20
65231;DHT22;51813;40.666;16.602;2023-07-20T00:17:58;29.10;54.00
65231;DHT22;51813;40.666;16.602;2023-07-20T00:20:24;29.00;54.20
65231;DHT22;51813;40.666;16.602;2023-07-20T00:22:51;29.00;54.10
65231;DHT22;51813;40.666;16.602;2023-07-20T00:25:17;29.10;53.90
65231;DHT22;51813;40.666;16.602;2023-07-20T00:27:43;29.00;54.00
65231;DHT22;51813;40.666;16.602;2023-07-20T00:30:10;29.10;54.10
65231;DHT22;51813;40.666;16.602;2023-07-20T00:32:35;29.00;54.10
65231;DHT22;51813;40.666;16.602;2023-07-20T00:35:01;29.00;53.80
65231;DHT22;51813;40.666;16.602;2023-07-20T00:37:27;29.10;54.00
65231;DHT22;51813;40.666;16.602;2023-07-20T00:39:53;29.10;53.90
65231;DHT22;51813;40.666;16.602;2023-07-20T00:42:19;29.00;53.70
65231;DHT22;51813;40.666;16.602;2023-07-20T00:44:44;29.00;53.60
65231;DHT22;51813;40.666;16.602;2023-07-20T00:47:10;29.00;53.70
65231;DHT22;51813;40.666;16.602;2023-07-20T00:49:37;29.00;53.70
65231;DHT22;51813;40.666;16.602;2023-07-20T00:52:03;29.00;53.40
65231;DHT22;51813;40.666;16.602;2023-07-20T00:54:30;29.00;53.60
65231;DHT22;51813;40.666;16.602;2023-07-20T00:56:56;29.00;53.60
65231;DHT22;51813;40.666;16.602;2023-07-20T00:59:22;29.00;53.30
65231;DHT22;51813;40.666;16.602;2023-07-20T01:01:48;29.00;53.10
65231;DHT22;51813;40.666;16.602;2023-07-20T01:04:13;29.00;53.00
65231;DHT22;51813;40.666;16.602;2023-07-20T01:06:45;29.00;52.30
65231;DHT22;51813;40.666;16.602;2023-07-20T01:09:28;29.00;52.50
65231;DHT22;51813;40.666;16.602;2023-07-20T01:12:02;29.00;53.00
65231;DHT22;51813;40.666;16.602;2023-07-20T01:14:31;29.00;53.00
65231;DHT22;51813;40.666;16.602;2023-07-20T01:16:57;29.00;52.50
65231;DHT22;51813;40.666;16.602;2023-07-20T01:19:23;29.00;53.10
65231;DHT22;51813;40.666;16.602;2023-07-20T01:33:24;29.00;53.40
65231;DHT22;51813;40.666;16.602;2023-07-20T01:35:58;29.00;53.10
65231;DHT22;51813;40.666;16.602;2023-07-20T01:38:25;29.00;53.50
65231;DHT22;51813;40.666;16.602;2023-07-20T01:40:52;29.00;53.10
65231;DHT22;51813;40.666;16.602;2023-07-20T01:43:18;29.00;52.90
65231;DHT22;51813;40.666;16.602;2023-07-20T01:45:44;29.00;52.90
65231;DHT22;51813;40.666;16.602;2023-07-20T01:48:10;29.00;53.10
65231;DHT22;51813;40.666;16.602;2023-07-20T01:50:36;29.00;53.20
65231;DHT22;51813;40.666;16.602;2023-07-20T01:53:02;28.90;53.20
65231;DHT22;51813;40.666;16.602;2023-07-20T01:55:27;28.90;53.40
65231;DHT22;51813;40.666;16.602;2023-07-20T01:57:55;29.00;52.60
65231;DHT22;51813;40.666;16.602;2023-07-20T02:00:21;28.90;53.10
65231;DHT22;51813;40.666;16.602;2023-07-20T02:02:49;28.90;53.50
65231;DHT22;51813;40.666;16.602;2023-07-20T02:05:15;28.90;53.50
65231;DHT22;51813;40.666;16.602;2023-07-20T02:07:41;28.90;53.30
65231;DHT22;51813;40.666;16.602;2023-07-20T02:10:07;28.90;53.30
65231;DHT22;51813;40.666;16.602;2023-07-20T02:12:33;29.00;52.60
65231;DHT22;51813;40.666;16.602;2023-07-20T02:14:58;29.00;52.80
65231;DHT22;51813;40.666;16.602;2023-07-20T02:17:24;29.00;53.00
65231;DHT22;51813;40.666;16.602;2023-07-20T02:19:53;28.90;53.10
65231;DHT22;51813;40.666;16.602;2023-07-20T02:22:20;28.90;53.30
65231;DHT22;51813;40.666;16.602;2023-07-20T02:24:46;28.90;52.90
65231;DHT22;51813;40.666;16.602;2023-07-20T02:27:12;28.90;53.40
65231;DHT22;51813;40.666;16.602;2023-07-20T02:29:38;28.90;53.00
65231;DHT22;51813;40.666;16.602;2023-07-20T02:32:04;28.90;50.10
65231;DHT22;51813;40.666;16.602;2023-07-20T02:34:30;28.90;49.30
65231;DHT22;51813;40.666;16.602;2023-07-20T02:36:56;28.90;50.10
65231;DHT22;51813;40.666;16.602;2023-07-20T02:39:23;28.90;52.00
65231;DHT22;51813;40.666;16.602;2023-07-20T02:41:48;28.90;51.90
65231;DHT22;51813;40.666;16.602;2023-07-20T02:44:14;28.90;50.60
65231;DHT22;51813;40.666;16.602;2023-07-20T02:46:40;28.90;52.00
65231;DHT22;51813;40.666;16.602;2023-07-20T02:49:06;28.90;50.20
65231;DHT22;51813;40.666;16.602;2023-07-20T02:51:32;28.90;49.40
65231;DHT22;51813;40.666;16.602;2023-07-20T02:53:58;28.90;51.90
65231;DHT22;51813;40.666;16.602;2023-07-20T02:56:24;28.90;51.90
65231;DHT22;51813;40.666;16.602;2023-07-20T02:58:50;28.90;52.40
65231;DHT22;51813;40.666;16.602;2023-07-20T03:01:15;28.90;51.80
65231;DHT22;51813;40.666;16.602;2023-07-20T03:03:42;28.90;52.60
65231;DHT22;51813;40.666;16.602;2023-07-20T03:06:14;28.90;50.70
65231;DHT22;51813;40.666;16.602;2023-07-20T03:08:41;28.80;51.80
65231;DHT22;51813;40.666;16.602;2023-07-20T03:11:10;28.80;48.90
65231;DHT22;51813;40.666;16.602;2023-07-20T03:13:36;28.80;49.60
65231;DHT22;51813;40.666;16.602;2023-07-20T03:16:02;28.90;50.60
65231;DHT22;51813;40.666;16.602;2023-07-20T03:18:28;28.90;50.20
65231;DHT22;51813;40.666;16.602;2023-07-20T03:20:53;28.90;49.40
65231;DHT22;51813;40.666;16.602;2023-07-20T03:23:19;28.90;49.80
65231;DHT22;51813;40.666;16.602;2023-07-20T03:25:44;28.90;48.10
65231;DHT22;51813;40.666;16.602;2023-07-20T03:28:10;28.90;50.10
65231;DHT22;51813;40.666;16.602;2023-07-20T03:30:36;28.80;49.40
65231;DHT22;51813;40.666;16.602;2023-07-20T03:33:01;28.80;48.50
65231;DHT22;51813;40.666;16.602;2023-07-20T03:35:28;28.80;46.60
65231;DHT22;51813;40.666;16.602;2023-07-20T03:37:54;28.80;49.70
65231;DHT22;51813;40.666;16.602;2023-07-20T03:40:19;28.80;49.30
65231;DHT22;51813;40.666;16.602;2023-07-20T03:42:45;28.80;47.80
65231;DHT22;51813;40.666;16.602;2023-07-20T03:45:11;28.80;47.40
65231;DHT22;51813;40.666;16.602;2023-07-20T03:47:36;28.80;48.10
65231;DHT22;51813;40.666;16.602;2023-07-20T03:50:02;28.80;48.00
65231;DHT22;51813;40.666;16.602;2023-07-20T03:52:28;28.80;48.00
65231;DHT22;51813;40.666;16.602;2023-07-20T03:54:55;28.80;48.00
65231;DHT22;51813;40.666;16.602;2023-07-20T03:57:20;28.80;47.00
65231;DHT22;51813;40.666;16.602;2023-07-20T03:59:46;28.80;48.30
65231;DHT22;51813;40.666;16.602;2023-07-20T04:02:12;28.80;47.90
65231;DHT22;51813;40.666;16.602;2023-07-20T04:04:37;28.80;47.70
65231;DHT22;51813;40.666;16.602;2023-07-20T04:07:03;28.80;48.60
65231;DHT22;51813;40.666;16.602;2023-07-20T04:09:31;28.80;45.80
65231;DHT22;51813;40.666;16.602;2023-07-20T04:11:57;28.70;46.50
65231;DHT22;51813;40.666;16.602;2023-07-20T04:14:22;28.70;46.30
65231;DHT22;51813;40.666;16.602;2023-07-20T04:16:48;28.80;46.60
65231;DHT22;51813;40.666;16.602;2023-07-20T04:19:14;28.80;46.60
65231;DHT22;51813;40.666;16.602;2023-07-20T04:21:40;28.80;46.80
65231;DHT22;51813;40.666;16.602;2023-07-20T04:24:08;28.80;48.40
65231;DHT22;51813;40.666;16.602;2023-07-20T04:26:34;28.80;46.10
65231;DHT22;51813;40.666;16.602;2023-07-20T04:29:00;28.80;46.30
65231;DHT22;51813;40.666;16.602;2023-07-20T04:31:26;28.80;46.10
65231;DHT22;51813;40.666;16.602;2023-07-20T04:33:52;28.80;45.80
65231;DHT22;51813;40.666;16.602;2023-07-20T04:36:17;28.80;47.00
65231;DHT22;51813;40.666;16.602;2023-07-20T04:38:48;28.80;49.10
65231;DHT22;51813;40.666;16.602;2023-07-20T04:41:14;28.80;48.20
65231;DHT22;51813;40.666;16.602;2023-07-20T04:43:43;28.80;45.80
65231;DHT22;51813;40.666;16.602;2023-07-20T04:46:11;28.80;46.90
65231;DHT22;51813;40.666;16.602;2023-07-20T04:48:37;28.80;46.20
65231;DHT22;51813;40.666;16.602;2023-07-20T04:51:03;28.80;47.40
65231;DHT22;51813;40.666;16.602;2023-07-20T04:53:29;28.80;46.40
65231;DHT22;51813;40.666;16.602;2023-07-20T04:55:56;28.80;47.50
65231;DHT22;51813;40.666;16.602;2023-07-20T04:58:22;28.80;48.10
65231;DHT22;51813;40.666;16.602;2023-07-20T05:00:49;28.80;46.60
65231;DHT22;51813;40.666;16.602;2023-07-20T05:03:14;28.80;49.00
65231;DHT22;51813;40.666;16.602;2023-07-20T05:05:40;28.80;47.70
65231;DHT22;51813;40.666;16.602;2023-07-20T05:08:06;28.80;47.10
65231;DHT22;51813;40.666;16.602;2023-07-20T05:10:32;28.80;47.20
65231;DHT22;51813;40.666;16.602;2023-07-20T05:12:58;28.80;47.10
65231;DHT22;51813;40.666;16.602;2023-07-20T05:15:24;28.80;46.50
65231;DHT22;51813;40.666;16.602;2023-07-20T05:17:49;28.90;46.70
65231;DHT22;51813;40.666;16.602;2023-07-20T05:20:15;28.80;45.40
65231;DHT22;51813;40.666;16.602;2023-07-20T05:22:41;28.80;46.60
65231;DHT22;51813;40.666;16.602;2023-07-20T05:25:08;28.80;45.50
65231;DHT22;51813;40.666;16.602;2023-07-20T05:27:37;28.80;45.10
65231;DHT22;51813;40.666;16.602;2023-07-20T05:30:03;28.80;46.60
65231;DHT22;51813;40.666;16.602;2023-07-20T05:32:30;28.80;45.50
65231;DHT22;51813;40.666;16.602;2023-07-20T05:34:57;28.80;46.60
65231;DHT22;51813;40.666;16.602;2023-07-20T05:37:22;28.80;47.20
65231;DHT22;51813;40.666;16.602;2023-07-20T05:39:48;28.80;47.50
65231;DHT22;51813;40.666;16.602;2023-07-20T05:42:14;28.70;47.50
65231;DHT22;51813;40.666;16.602;2023-07-20T05:44:40;28.80;46.60
65231;DHT22;51813;40.666;16.602;2023-07-20T05:47:06;28.80;48.20
65231;DHT22;51813;40.666;16.602;2023-07-20T05:49:32;28.80;45.10
65231;DHT22;51813;40.666;16.602;2023-07-20T05:51:58;28.80;47.00
65231;DHT22;51813;40.666;16.602;2023-07-20T05:54:24;28.80;47.30
65231;DHT22;51813;40.666;16.602;2023-07-20T05:56:50;28.80;47.70
65231;DHT22;51813;40.666;16.602;2023-07-20T05:59:16;28.80;47.10
65231;DHT22;51813;40.666;16.602;2023-07-20T06:01:42;28.80;49.50
65231;DHT22;51813;40.666;16.602;2023-07-20T06:04:08;28.80;48.40
65231;DHT22;51813;40.666;16.602;2023-07-20T06:06:34;28.80;46.40
65231;DHT22;51813;40.666;16.602;2023-07-20T06:09:00;28.80;46.60
65231;DHT22;51813;40.666;16.602;2023-07-20T06:11:30;28.80;45.60
65231;DHT22;51813;40.666;16.602;2023-07-20T06:13:56;28.80;48.40
65231;DHT22;51813;40.666;16.602;2023-07-20T06:16:22;28.80;44.90
65231;DHT22;51813;40.666;16.602;2023-07-20T06:18:48;28.70;45.80
65231;DHT22;51813;40.666;16.602;2023-07-20T06:21:14;28.80;46.20
65231;DHT22;51813;40.666;16.602;2023-07-20T06:23:40;28.80;48.00
65231;DHT22;51813;40.666;16.602;2023-07-20T06:26:06;28.80;49.20
65231;DHT22;51813;40.666;16.602;2023-07-20T06:28:33;28.80;49.60
65231;DHT22;51813;40.666;16.602;2023-07-20T06:31:04;28.80;49.70
65231;DHT22;51813;40.666;16.602;2023-07-20T06:33:30;28.70;48.80
65231;DHT22;51813;40.666;16.602;2023-07-20T06:35:56;28.80;46.80
65231;DHT22;51813;40.666;16.602;2023-07-20T06:38:22;28.90;47.80
65231;DHT22;51813;40.666;16.602;2023-07-20T06:40:49;28.90;48.00
65231;DHT22;51813;40.666;16.602;2023-07-20T06:43:15;29.00;47.70
65231;DHT22;51813;40.666;16.602;2023-07-20T06:45:41;29.00;46.10
65231;DHT22;51813;40.666;16.602;2023-07-20T06:48:07;29.00;44.60
65231;DHT22;51813;40.666;16.602;2023-07-20T06:50:33;28.90;43.20
65231;DHT22;51813;40.666;16.602;2023-07-20T06:52:59;29.00;41.90
65231;DHT22;51813;40.666;16.602;2023-07-20T06:55:25;29.00;42.30
65231;DHT22;51813;40.666;16.602;2023-07-20T06:57:51;29.00;42.50
65231;DHT22;51813;40.666;16.602;2023-07-20T07:00:17;29.00;42.40
65231;DHT22;51813;40.666;16.602;2023-07-20T07:02:43;29.00;42.00
65231;DHT22;51813;40.666;16.602;2023-07-20T07:05:09;29.00;43.10
65231;DHT22;51813;40.666;16.602;2023-07-20T07:07:35;29.00;43.60
65231;DHT22;51813;40.666;16.602;2023-07-20T07:10:01;29.00;42.90
65231;DHT22;51813;40.666;16.602;2023-07-20T07:12:29;29.00;42.80
65231;DHT22;51813;40.666;16.602;2023-07-20T07:14:54;29.10;42.50
65231;DHT22;51813;40.666;16.602;2023-07-20T07:17:20;29.10;42.20
65231;DHT22;51813;40.666;16.602;2023-07-20T07:19:45;29.10;41.10
65231;DHT22;51813;40.666;16.602;2023-07-20T07:22:11;29.10;40.90
65231;DHT22;51813;40.666;16.602;2023-07-20T07:24:37;29.10;40.80
65231;DHT22;51813;40.666;16.602;2023-07-20T07:27:03;29.10;40.50
65231;DHT22;51813;40.666;16.602;2023-07-20T07:29:29;29.10;40.00
65231;DHT22;51813;40.666;16.602;2023-07-20T07:31:55;29.20;41.00
65231;DHT22;51813;40.666;16.602;2023-07-20T07:34:20;29.20;40.50
65231;DHT22;51813;40.666;16.602;2023-07-20T07:36:46;29.20;40.40
65231;DHT22;51813;40.666;16.602;2023-07-20T07:39:12;29.20;40.70
65231;DHT22;51813;40.666;16.602;2023-07-20T07:41:38;29.30;40.20
65231;DHT22;51813;40.666;16.602;2023-07-20T07:44:04;29.30;39.80
65231;DHT22;51813;40.666;16.602;2023-07-20T07:46:30;29.30;39.70
65231;DHT22;51813;40.666;16.602;2023-07-20T07:48:56;29.40;41.10
65231;DHT22;51813;40.666;16.602;2023-07-20T07:51:21;29.40;40.50
65231;DHT22;51813;40.666;16.602;2023-07-20T07:53:47;29.40;39.60
65231;DHT22;51813;40.666;16.602;2023-07-20T07:56:14;29.40;39.00
65231;DHT22;51813;40.666;16.602;2023-07-20T07:58:40;29.40;38.60
65231;DHT22;51813;40.666;16.602;2023-07-20T08:01:06;29.40;39.50
65231;DHT22;51813;40.666;16.602;2023-07-20T08:03:31;29.40;38.70
65231;DHT22;51813;40.666;16.602;2023-07-20T08:05:57;29.40;38.50
65231;DHT22;51813;40.666;16.602;2023-07-20T08:08:25;29.50;38.40
65231;DHT22;51813;40.666;16.602;2023-07-20T08:10:53;29.50;38.10
65231;DHT22;51813;40.666;16.602;2023-07-20T08:13:20;29.50;37.90
65231;DHT22;51813;40.666;16.602;2023-07-20T08:15:49;29.50;38.30
65231;DHT22;51813;40.666;16.602;2023-07-20T08:18:16;29.50;40.10
65231;DHT22;51813;40.666;16.602;2023-07-20T08:20:45;29.50;40.10
65231;DHT22;51813;40.666;16.602;2023-07-20T08:23:11;29.40;40.30
65231;DHT22;51813;40.666;16.602;2023-07-20T08:25:37;29.40;40.80
65231;DHT22;51813;40.666;16.602;2023-07-20T08:28:05;29.40;40.80
65231;DHT22;51813;40.666;16.602;2023-07-20T08:30:43;29.30;41.20
65231;DHT22;51813;40.666;16.602;2023-07-20T08:33:10;29.30;41.50
65231;DHT22;51813;40.666;16.602;2023-07-20T08:35:37;29.30;42.20
65231;DHT22;51813;40.666;16.602;2023-07-20T08:38:02;29.20;41.90
65231;DHT22;51813;40.666;16.602;2023-07-20T08:40:33;29.20;42.30
65231;DHT22;51813;40.666;16.602;2023-07-20T08:43:00;29.20;42.80
65231;DHT22;51813;40.666;16.602;2023-07-20T08:45:29;29.20;43.70
65231;DHT22;51813;40.666;16.602;2023-07-20T08:47:58;29.40;41.90
65231;DHT22;51813;40.666;16.602;2023-07-20T08:50:26;29.50;41.70
65231;DHT22;51813;40.666;16.602;2023-07-20T08:52:53;29.60;41.70
65231;DHT22;51813;40.666;16.602;2023-07-20T08:55:20;29.70;40.60
65231;DHT22;51813;40.666;16.602;2023-07-20T08:57:50;29.80;41.00
65231;DHT22;51813;40.666;16.602;2023-07-20T09:00:17;29.80;39.80
65231;DHT22;51813;40.666;16.602;2023-07-20T09:02:45;29.80;39.40
65231;DHT22;51813;40.666;16.602;2023-07-20T09:05:11;29.70;39.00
65231;DHT22;51813;40.666;16.602;2023-07-20T09:07:40;29.70;41.30
65231;DHT22;51813;40.666;16.602;2023-07-20T09:10:06;29.60;40.70
65231;DHT22;51813;40.666;16.602;2023-07-20T09:12:35;29.50;40.60
65231;DHT22;51813;40.666;16.602;2023-07-20T09:15:02;29.50;40.60
65231;DHT22;51813;40.666;16.602;2023-07-20T09:17:28;29.40;40.60
65231;DHT22;51813;40.666;16.602;2023-07-20T09:19:54;29.40;41.90
65231;DHT22;51813;40.666;16.602;2023-07-20T09:22:20;29.40;42.30
65231;DHT22;51813;40.666;16.602;2023-07-20T09:24:45;29.50;40.20
65231;DHT22;51813;40.666;16.602;2023-07-20T09:27:11;29.70;39.80
65231;DHT22;51813;40.666;16.602;2023-07-20T09:29:50;29.80;39.20
65231;DHT22;51813;40.666;16.602;2023-07-20T09:32:20;29.80;38.20
65231;DHT22;51813;40.666;16.602;2023-07-20T09:34:52;29.80;38.40
65231;DHT22;51813;40.666;16.602;2023-07-20T09:37:24;29.90;38.10
65231;DHT22;51813;40.666;16.602;2023-07-20T09:39:52;30.10;37.30
65231;DHT22;51813;40.666;16.602;2023-07-20T09:42:22;30.20;36.50
65231;DHT22;51813;40.666;16.602;2023-07-20T09:44:48;30.40;36.70
65231;DHT22;51813;40.666;16.602;2023-07-20T09:47:22;30.50;36.00
65231;DHT22;51813;40.666;16.602;2023-07-20T09:49:48;30.70;34.40
65231;DHT22;51813;40.666;16.602;2023-07-20T09:52:15;30.90;34.80
65231;DHT22;51813;40.666;16.602;2023-07-20T09:54:44;31.10;34.70
65231;DHT22;51813;40.666;16.602;2023-07-20T09:57:11;31.20;34.70
65231;DHT22;51813;40.666;16.602;2023-07-20T09:59:39;31.40;35.10
65231;DHT22;51813;40.666;16.602;2023-07-20T10:02:20;31.40;34.40
65231;DHT22;51813;40.666;16.602;2023-07-20T10:04:48;31.50;34.60
65231;DHT22;51813;40.666;16.602;2023-07-20T10:07:17;31.50;33.20
65231;DHT22;51813;40.666;16.602;2023-07-20T10:09:47;31.50;32.60
65231;DHT22;51813;40.666;16.602;2023-07-20T10:12:15;31.60;34.20
65231;DHT22;51813;40.666;16.602;2023-07-20T10:14:44;31.50;35.80
65231;DHT22;51813;40.666;16.602;2023-07-20T10:17:15;31.50;33.70
65231;DHT22;51813;40.666;16.602;2023-07-20T10:19:44;31.60;34.00
65231;DHT22;51813;40.666;16.602;2023-07-20T10:22:19;31.60;34.30
65231;DHT22;51813;40.666;16.602;2023-07-20T10:24:46;31.70;33.40
65231;DHT22;51813;40.666;16.602;2023-07-20T10:27:15;31.70;33.60
65231;DHT22;51813;40.666;16.602;2023-07-20T10:29:41;31.80;32.10
65231;DHT22;51813;40.666;16.602;2023-07-20T10:32:08;31.80;32.40
65231;DHT22;51813;40.666;16.602;2023-07-20T10:34:34;31.80;33.60
65231;DHT22;51813;40.666;16.602;2023-07-20T10:37:00;31.80;34.20
65231;DHT22;51813;40.666;16.602;2023-07-20T10:39:27;31.70;32.50
65231;DHT22;51813;40.666;16.602;2023-07-20T10:41:59;31.70;34.20
65231;DHT22;51813;40.666;16.602;2023-07-20T10:44:25;31.50;35.30
65231;DHT22;51813;40.666;16.602;2023-07-20T10:47:02;31.40;36.00
65231;DHT22;51813;40.666;16.602;2023-07-20T10:49:28;31.30;36.20
65231;DHT22;51813;40.666;16.602;2023-07-20T10:51:59;31.20;36.30
65231;DHT22;51813;40.666;16.602;2023-07-20T10:56:56;31.10;36.90
65231;DHT22;51813;40.666;16.602;2023-07-20T11:01:57;30.90;37.50
65231;DHT22;51813;40.666;16.602;2023-07-20T11:04:52;31.00;37.60
65231;DHT22;51813;40.666;16.602;2023-07-20T11:07:37;30.90;38.50
65231;DHT22;51813;40.666;16.602;2023-07-20T11:10:15;30.90;38.80
65231;DHT22;51813;40.666;16.602;2023-07-20T11:12:41;30.80;39.10
65231;DHT22;51813;40.666;16.602;2023-07-20T11:15:19;30.80;39.80
65231;DHT22;51813;40.666;16.602;2023-07-20T11:17:45;30.80;39.80
65231;DHT22;51813;40.666;16.602;2023-07-20T11:20:12;30.70;40.10
65231;DHT22;51813;40.666;16.602;2023-07-20T11:22:38;30.70;40.50
65231;DHT22;51813;40.666;16.602;2023-07-20T11:25:04;30.70;41.30
65231;DHT22;51813;40.666;16.602;2023-07-20T11:27:30;30.70;41.20
65231;DHT22;51813;40.666;16.602;2023-07-20T11:29:56;30.70;41.50
65231;DHT22;51813;40.666;16.602;2023-07-20T11:32:25;30.60;41.90
65231;DHT22;51813;40.666;16.602;2023-07-20T11:34:51;30.50;42.00
65231;DHT22;51813;40.666;16.602;2023-07-20T11:37:17;30.60;42.30
65231;DHT22;51813;40.666;16.602;2023-07-20T11:39:43;30.50;42.40
65231;DHT22;51813;40.666;16.602;2023-07-20T11:42:09;30.50;42.70
65231;DHT22;51813;40.666;16.602;2023-07-20T11:44:35;30.50;43.10
65231;DHT22;51813;40.666;16.602;2023-07-20T11:47:10;30.80;41.10
65231;DHT22;51813;40.666;16.602;2023-07-20T11:49:42;30.90;40.80
65231;DHT22;51813;40.666;16.602;2023-07-20T11:52:10;31.00;40.70
65231;DHT22;51813;40.666;16.602;2023-07-20T11:54:38;31.00;40.00
65231;DHT22;51813;40.666;16.602;2023-07-20T11:57:04;30.90;40.30
65231;DHT22;51813;40.666;16.602;2023-07-20T11:59:31;30.80;41.10
65231;DHT22;51813;40.666;16.602;2023-07-20T12:01:58;30.80;41.30
65231;DHT22;51813;40.666;16.602;2023-07-20T12:04:24;30.70;41.50
65231;DHT22;51813;40.666;16.602;2023-07-20T12:06:50;30.70;42.10
65231;DHT22;51813;40.666;16.602;2023-07-20T12:09:16;30.70;42.20
65231;DHT22;51813;40.666;16.602;2023-07-20T12:11:44;30.50;42.80
65231;DHT22;51813;40.666;16.602;2023-07-20T12:14:12;30.60;43.30
65231;DHT22;51813;40.666;16.602;2023-07-20T12:16:38;30.60;41.90
65231;DHT22;51813;40.666;16.602;2023-07-20T12:19:06;30.80;43.20
65231;DHT22;51813;40.666;16.602;2023-07-20T12:21:34;30.80;42.70
65231;DHT22;51813;40.666;16.602;2023-07-20T12:24:02;30.90;43.00
65231;DHT22;51813;40.666;16.602;2023-07-20T12:26:32;30.90;42.90
65231;DHT22;51813;40.666;16.602;2023-07-20T12:28:58;31.00;42.70
65231;DHT22;51813;40.666;16.602;2023-07-20T12:31:25;31.00;43.10
65231;DHT22;51813;40.666;16.602;2023-07-20T12:33:51;31.10;43.30
65231;DHT22;51813;40.666;16.602;2023-07-20T12:36:18;31.20;43.50
65231;DHT22;51813;40.666;16.602;2023-07-20T12:38:44;31.20;43.20
65231;DHT22;51813;40.666;16.602;2023-07-20T12:41:11;31.30;43.50
65231;DHT22;51813;40.666;16.602;2023-07-20T12:43:43;31.30;42.80
65231;DHT22;51813;40.666;16.602;2023-07-20T12:46:10;31.50;40.80
65231;DHT22;51813;40.666;16.602;2023-07-20T12:48:40;31.60;41.60
65231;DHT22;51813;40.666;16.602;2023-07-20T12:51:08;31.60;38.30
65231;DHT22;51813;40.666;16.602;2023-07-20T12:53:34;31.80;40.20
65231;DHT22;51813;40.666;16.602;2023-07-20T12:56:00;31.80;40.70
65231;DHT22;51813;40.666;16.602;2023-07-20T12:58:26;31.80;39.90
65231;DHT22;51813;40.666;16.602;2023-07-20T13:00:51;31.80;38.60
65231;DHT22;51813;40.666;16.602;2023-07-20T13:03:17;31.90;39.30
65231;DHT22;51813;40.666;16.602;2023-07-20T13:05:45;31.90;40.90
65231;DHT22;51813;40.666;16.602;2023-07-20T13:08:11;32.00;40.20
65231;DHT22;51813;40.666;16.602;2023-07-20T13:10:37;32.00;40.30
65231;DHT22;51813;40.666;16.602;2023-07-20T13:13:04;32.00;41.00
65231;DHT22;51813;40.666;16.602;2023-07-20T13:15:31;31.90;40.90
65231;DHT22;51813;40.666;16.602;2023-07-20T13:17:58;31.90;41.00
65231;DHT22;51813;40.666;16.602;2023-07-20T13:20:25;32.00;41.70
65231;DHT22;51813;40.666;16.602;2023-07-20T13:22:50;32.00;41.70
65231;DHT22;51813;40.666;16.602;2023-07-20T13:25:16;31.90;42.00
65231;DHT22;51813;40.666;16.602;2023-07-20T13:27:42;31.90;42.30
65231;DHT22;51813;40.666;16.602;2023-07-20T13:30:08;31.80;42.60
65231;DHT22;51813;40.666;16.602;2023-07-20T13:32:36;31.80;42.80
65231;DHT22;51813;40.666;16.602;2023-07-20T13:35:03;31.80;42.30
65231;DHT22;51813;40.666;16.602;2023-07-20T13:37:29;31.90;42.40
65231;DHT22;51813;40.666;16.602;2023-07-20T13:39:54;32.00;42.60
65231;DHT22;51813;40.666;16.602;2023-07-20T13:42:20;32.10;41.20
65231;DHT22;51813;40.666;16.602;2023-07-20T13:44:47;32.20;41.90
65231;DHT22;51813;40.666;16.602;2023-07-20T13:47:14;32.20;40.80
65231;DHT22;51813;40.666;16.602;2023-07-20T13:49:39;32.20;40.50
65231;DHT22;51813;40.666;16.602;2023-07-20T13:52:05;32.30;41.00
65231;DHT22;51813;40.666;16.602;2023-07-20T13:54:31;32.30;40.10
65231;DHT22;51813;40.666;16.602;2023-07-20T13:56:57;32.30;39.10
65231;DHT22;51813;40.666;16.602;2023-07-20T13:59:23;32.40;39.90
65231;DHT22;51813;40.666;16.602;2023-07-20T14:01:49;32.50;40.50
65231;DHT22;51813;40.666;16.602;2023-07-20T14:04:15;32.50;39.30
65231;DHT22;51813;40.666;16.602;2023-07-20T14:06:40;32.50;40.30
65231;DHT22;51813;40.666;16.602;2023-07-20T14:09:06;32.50;39.50
65231;DHT22;51813;40.666;16.602;2023-07-20T14:11:33;32.60;39.40
65231;DHT22;51813;40.666;16.602;2023-07-20T14:13:58;32.60;40.50
65231;DHT22;51813;40.666;16.602;2023-07-20T14:16:24;32.40;40.90
65231;DHT22;51813;40.666;16.602;2023-07-20T14:18:51;32.30;41.30
65231;DHT22;51813;40.666;16.602;2023-07-20T14:21:18;32.30;41.30
65231;DHT22;51813;40.666;16.602;2023-07-20T14:23:46;32.40;41.10
65231;DHT22;51813;40.666;16.602;2023-07-20T14:26:12;32.40;40.80
65231;DHT22;51813;40.666;16.602;2023-07-20T14:28:38;32.40;41.60
65231;DHT22;51813;40.666;16.602;2023-07-20T14:31:04;32.40;40.60
65231;DHT22;51813;40.666;16.602;2023-07-20T14:33:30;32.40;41.30
65231;DHT22;51813;40.666;16.602;2023-07-20T14:35:56;32.50;41.40
65231;DHT22;51813;40.666;16.602;2023-07-20T14:38:22;32.40;41.60
65231;DHT22;51813;40.666;16.602;2023-07-20T14:40:48;32.30;42.00
65231;DHT22;51813;40.666;16.602;2023-07-20T14:43:13;32.40;41.80
65231;DHT22;51813;40.666;16.602;2023-07-20T14:45:42;32.30;42.70
65231;DHT22;51813;40.666;16.602;2023-07-20T14:48:08;32.30;43.30
65231;DHT22;51813;40.666;16.602;2023-07-20T14:50:35;32.40;42.90
65231;DHT22;51813;40.666;16.602;2023-07-20T14:53:00;32.40;43.30
65231;DHT22;51813;40.666;16.602;2023-07-20T14:55:26;32.40;43.40
65231;DHT22;51813;40.666;16.602;2023-07-20T14:57:52;32.40;43.50
65231;DHT22;51813;40.666;16.602;2023-07-20T15:00:18;32.40;44.10
65231;DHT22;51813;40.666;16.602;2023-07-20T15:02:45;32.40;44.00
65231;DHT22;51813;40.666;16.602;2023-07-20T15:05:11;32.30;43.00
65231;DHT22;51813;40.666;16.602;2023-07-20T15:07:37;32.30;43.10
65231;DHT22;51813;40.666;16.602;2023-07-20T15:10:04;32.20;43.10
65231;DHT22;51813;40.666;16.602;2023-07-20T15:12:33;32.20;43.20
65231;DHT22;51813;40.666;16.602;2023-07-20T15:15:07;32.10;43.60
65231;DHT22;51813;40.666;16.602;2023-07-20T15:17:34;32.10;43.70
65231;DHT22;51813;40.666;16.602;2023-07-20T15:20:01;32.00;44.40
65231;DHT22;51813;40.666;16.602;2023-07-20T15:22:30;32.10;43.90
65231;DHT22;51813;40.666;16.602;2023-07-20T15:24:56;32.20;43.40
65231;DHT22;51813;40.666;16.602;2023-07-20T15:27:22;32.10;43.60
65231;DHT22;51813;40.666;16.602;2023-07-20T15:29:49;32.10;43.40